sensor_id;sensor_type;location;lat;lon;timestamp;P1;durP1;ratioP1;P2;durP2;ratioP2
81544;SDS011;70990;50.618;7.346;2023-11-21T00:02:00;13.82;;;4.38;;
81544;SDS011;70990;50.618;7.346;2023-11-21T00:04:27;14.13;;;4.60;;
81544;SDS011;70990;50.618;7.346;2023-11-21T00:06:54;11.40;;;4.55;;
81544;SDS011;70990;50.618;7.346;2023-11-21T00:09:20;14.13;;;4.65;;
81544;SDS011;70990;50.618;7.346;2023-11-21T00:11:47;13.35;;;4.63;;
81544;SDS011;70990;50.618;7.346;2023-11-21T00:14:13;12.02;;;4.80;;
81544;SDS011;70990;50.618;7.346;2023-11-21T00:16:40;13.85;;;5.43;;
81544;SDS011;70990;50.618;7.346;2023-11-21T00:19:07;12.80;;;5.03;;
81544;SDS011;70990;50.618;7.346;2023-11-21T00:21:34;11.32;;;4.68;;
81544;SDS011;70990;50.618;7.346;2023-11-21T00:24:00;13.77;;;5.85;;
81544;SDS011;70990;50.618;7.346;2023-11-21T00:26:27;13.82;;;5.40;;
81544;SDS011;70990;50.618;7.346;2023-11-21T00:29:00;14.57;;;5.13;;
81544;SDS011;70990;50.618;7.346;2023-11-21T00:31:27;11.70;;;4.90;;
81544;SDS011;70990;50.618;7.346;2023-11-21T00:33:53;11.05;;;4.93;;
81544;SDS011;70990;50.618;7.346;2023-11-21T00:36:20;10.95;;;4.60;;
81544;SDS011;70990;50.618;7.346;2023-11-21T00:38:46;11.07;;;4.55;;
81544;SDS011;70990;50.618;7.346;2023-11-21T00:41:13;11.90;;;5.18;;
81544;SDS011;70990;50.618;7.346;2023-11-21T00:43:40;14.52;;;5.57;;
81544;SDS011;70990;50.618;7.346;2023-11-21T00:46:07;10.75;;;4.53;;
81544;SDS011;70990;50.618;7.346;2023-11-21T00:48:33;9.50;;;3.47;;
81544;SDS011;70990;50.618;7.346;2023-11-21T00:51:00;10.27;;;3.97;;
81544;SDS011;70990;50.618;7.346;2023-11-21T00:53:27;10.27;;;3.80;;
81544;SDS011;70990;50.618;7.346;2023-11-21T00:55:53;9.35;;;3.72;;
81544;SDS011;70990;50.618;7.346;2023-11-21T00:58:20;9.25;;;3.90;;
81544;SDS011;70990;50.618;7.346;2023-11-21T01:00:46;9.57;;;3.92;;
81544;SDS011;70990;50.618;7.346;2023-11-21T01:03:13;11.75;;;3.92;;
81544;SDS011;70990;50.618;7.346;2023-11-21T01:05:40;10.43;;;4.70;;
81544;SDS011;70990;50.618;7.346;2023-11-21T01:08:07;9.10;;;4.20;;
81544;SDS011;70990;50.618;7.346;2023-11-21T01:10:34;10.02;;;3.83;;
81544;SDS011;70990;50.618;7.346;2023-11-21T01:13:00;10.50;;;4.03;;
81544;SDS011;70990;50.618;7.346;2023-11-21T01:15:27;13.27;;;4.60;;
81544;SDS011;70990;50.618;7.346;2023-11-21T01:17:53;20.13;;;5.10;;
81544;SDS011;70990;50.618;7.346;2023-11-21T01:20:20;54.72;;;5.40;;
81544;SDS011;70990;50.618;7.346;2023-11-21T01:22:46;110.28;;;8.75;;
81544;SDS011;70990;50.618;7.346;2023-11-21T01:25:13;37.78;;;5.60;;
81544;SDS011;70990;50.618;7.346;2023-11-21T01:27:41;111.30;;;7.93;;
81544;SDS011;70990;50.618;7.346;2023-11-21T01:30:11;50.08;;;6.05;;
81544;SDS011;70990;50.618;7.346;2023-11-21T01:32:38;42.03;;;6.40;;
81544;SDS011;70990;50.618;7.346;2023-11-21T01:35:05;35.75;;;5.30;;
81544;SDS011;70990;50.618;7.346;2023-11-21T01:37:33;26.35;;;4.80;;
81544;SDS011;70990;50.618;7.346;2023-11-21T01:39:59;19.77;;;4.40;;
81544;SDS011;70990;50.618;7.346;2023-11-21T01:42:26;59.17;;;6.18;;
81544;SDS011;70990;50.618;7.346;2023-11-21T01:44:53;31.75;;;4.75;;
81544;SDS011;70990;50.618;7.346;2023-11-21T01:47:19;14.00;;;4.93;;
81544;SDS011;70990;50.618;7.346;2023-11-21T01:49:46;14.90;;;4.18;;
81544;SDS011;70990;50.618;7.346;2023-11-21T01:52:14;34.60;;;6.22;;
81544;SDS011;70990;50.618;7.346;2023-11-21T01:54:40;23.48;;;5.18;;
81544;SDS011;70990;50.618;7.346;2023-11-21T01:57:08;28.70;;;5.07;;
81544;SDS011;70990;50.618;7.346;2023-11-21T01:59:35;13.02;;;4.13;;
81544;SDS011;70990;50.618;7.346;2023-11-21T02:02:04;17.30;;;4.30;;
81544;SDS011;70990;50.618;7.346;2023-11-21T02:04:33;13.18;;;4.38;;
81544;SDS011;70990;50.618;7.346;2023-11-21T02:07:01;12.25;;;5.13;;
81544;SDS011;70990;50.618;7.346;2023-11-21T02:09:29;11.70;;;4.40;;
81544;SDS011;70990;50.618;7.346;2023-11-21T02:11:55;9.52;;;3.70;;
81544;SDS011;70990;50.618;7.346;2023-11-21T02:14:25;9.88;;;3.38;;
81544;SDS011;70990;50.618;7.346;2023-11-21T02:16:52;8.93;;;3.88;;
81544;SDS011;70990;50.618;7.346;2023-11-21T02:19:19;12.65;;;4.13;;
81544;SDS011;70990;50.618;7.346;2023-11-21T02:21:46;12.05;;;4.07;;
81544;SDS011;70990;50.618;7.346;2023-11-21T02:24:13;10.68;;;3.90;;
81544;SDS011;70990;50.618;7.346;2023-11-21T02:26:40;9.55;;;3.88;;
81544;SDS011;70990;50.618;7.346;2023-11-21T02:29:07;11.07;;;3.83;;
81544;SDS011;70990;50.618;7.346;2023-11-21T02:31:34;12.27;;;4.30;;
81544;SDS011;70990;50.618;7.346;2023-11-21T02:34:00;9.30;;;3.30;;
81544;SDS011;70990;50.618;7.346;2023-11-21T02:36:27;9.70;;;3.42;;
81544;SDS011;70990;50.618;7.346;2023-11-21T02:38:54;10.57;;;3.90;;
81544;SDS011;70990;50.618;7.346;2023-11-21T02:41:20;10.38;;;3.70;;
81544;SDS011;70990;50.618;7.346;2023-11-21T02:43:47;63.30;;;6.93;;
81544;SDS011;70990;50.618;7.346;2023-11-21T02:46:13;155.38;;;11.73;;
81544;SDS011;70990;50.618;7.346;2023-11-21T02:48:41;90.20;;;8.85;;
81544;SDS011;70990;50.618;7.346;2023-11-21T02:51:07;77.70;;;7.03;;
81544;SDS011;70990;50.618;7.346;2023-11-21T02:53:34;74.72;;;7.88;;
81544;SDS011;70990;50.618;7.346;2023-11-21T02:56:01;64.07;;;6.22;;
81544;SDS011;70990;50.618;7.346;2023-11-21T02:58:29;91.30;;;7.93;;
81544;SDS011;70990;50.618;7.346;2023-11-21T03:00:56;59.15;;;6.93;;
81544;SDS011;70990;50.618;7.346;2023-11-21T03:03:22;12.80;;;4.25;;
81544;SDS011;70990;50.618;7.346;2023-11-21T03:05:50;33.80;;;5.50;;
81544;SDS011;70990;50.618;7.346;2023-11-21T03:08:16;49.45;;;6.20;;
81544;SDS011;70990;50.618;7.346;2023-11-21T03:10:43;13.05;;;4.22;;
81544;SDS011;70990;50.618;7.346;2023-11-21T03:13:09;12.18;;;4.57;;
81544;SDS011;70990;50.618;7.346;2023-11-21T03:15:36;10.85;;;3.72;;
81544;SDS011;70990;50.618;7.346;2023-11-21T03:18:03;12.15;;;4.82;;
81544;SDS011;70990;50.618;7.346;2023-11-21T03:20:29;9.68;;;4.07;;
81544;SDS011;70990;50.618;7.346;2023-11-21T03:22:56;11.35;;;4.38;;
81544;SDS011;70990;50.618;7.346;2023-11-21T03:25:22;10.73;;;3.80;;
81544;SDS011;70990;50.618;7.346;2023-11-21T03:27:49;10.50;;;3.40;;
81544;SDS011;70990;50.618;7.346;2023-11-21T03:30:16;12.23;;;3.92;;
81544;SDS011;70990;50.618;7.346;2023-11-21T03:32:42;11.05;;;3.80;;
81544;SDS011;70990;50.618;7.346;2023-11-21T03:35:09;11.40;;;4.22;;
81544;SDS011;70990;50.618;7.346;2023-11-21T03:37:36;9.38;;;3.80;;
81544;SDS011;70990;50.618;7.346;2023-11-21T03:40:03;11.68;;;3.92;;
81544;SDS011;70990;50.618;7.346;2023-11-21T03:42:30;9.90;;;4.30;;
81544;SDS011;70990;50.618;7.346;2023-11-21T03:44:58;13.32;;;4.72;;
81544;SDS011;70990;50.618;7.346;2023-11-21T03:47:25;12.40;;;5.50;;
81544;SDS011;70990;50.618;7.346;2023-11-21T03:49:53;17.95;;;5.32;;
81544;SDS011;70990;50.618;7.346;2023-11-21T03:52:19;10.70;;;4.53;;
81544;SDS011;70990;50.618;7.346;2023-11-21T03:54:46;33.83;;;6.57;;
81544;SDS011;70990;50.618;7.346;2023-11-21T03:57:12;14.50;;;5.53;;
81544;SDS011;70990;50.618;7.346;2023-11-21T03:59:42;15.68;;;5.30;;
81544;SDS011;70990;50.618;7.346;2023-11-21T04:02:09;12.85;;;4.75;;
81544;SDS011;70990;50.618;7.346;2023-11-21T04:04:36;11.80;;;4.80;;
81544;SDS011;70990;50.618;7.346;2023-11-21T04:07:04;11.35;;;4.88;;
81544;SDS011;70990;50.618;7.346;2023-11-21T04:09:31;15.27;;;5.53;;
81544;SDS011;70990;50.618;7.346;2023-11-21T04:11:58;11.70;;;4.93;;
81544;SDS011;70990;50.618;7.346;2023-11-21T04:14:25;10.30;;;4.45;;
81544;SDS011;70990;50.618;7.346;2023-11-21T04:16:51;12.90;;;4.18;;
81544;SDS011;70990;50.618;7.346;2023-11-21T04:19:18;9.52;;;3.95;;
81544;SDS011;70990;50.618;7.346;2023-11-21T04:21:45;10.80;;;4.63;;
81544;SDS011;70990;50.618;7.346;2023-11-21T04:24:12;10.20;;;4.00;;
81544;SDS011;70990;50.618;7.346;2023-11-21T04:26:38;9.82;;;4.32;;
81544;SDS011;70990;50.618;7.346;2023-11-21T04:29:05;11.63;;;4.53;;
81544;SDS011;70990;50.618;7.346;2023-11-21T04:31:31;11.05;;;4.32;;
81544;SDS011;70990;50.618;7.346;2023-11-21T04:33:58;11.30;;;4.95;;
81544;SDS011;70990;50.618;7.346;2023-11-21T04:36:24;13.68;;;4.47;;
81544;SDS011;70990;50.618;7.346;2023-11-21T04:38:51;11.30;;;4.50;;
81544;SDS011;70990;50.618;7.346;2023-11-21T04:41:18;11.27;;;4.70;;
81544;SDS011;70990;50.618;7.346;2023-11-21T04:43:44;10.73;;;4.30;;
81544;SDS011;70990;50.618;7.346;2023-11-21T04:46:11;14.82;;;4.47;;
81544;SDS011;70990;50.618;7.346;2023-11-21T04:48:38;12.68;;;4.53;;
81544;SDS011;70990;50.618;7.346;2023-11-21T04:51:05;13.70;;;4.95;;
81544;SDS011;70990;50.618;7.346;2023-11-21T04:53:31;12.80;;;5.50;;
81544;SDS011;70990;50.618;7.346;2023-11-21T04:55:58;13.30;;;5.88;;
81544;SDS011;70990;50.618;7.346;2023-11-21T04:58:24;14.65;;;5.75;;
81544;SDS011;70990;50.618;7.346;2023-11-21T05:00:51;22.98;;;7.90;;
81544;SDS011;70990;50.618;7.346;2023-11-21T05:03:18;16.50;;;6.78;;
81544;SDS011;70990;50.618;7.346;2023-11-21T05:05:45;18.30;;;8.15;;
81544;SDS011;70990;50.618;7.346;2023-11-21T05:08:11;21.75;;;8.60;;
81544;SDS011;70990;50.618;7.346;2023-11-21T05:10:38;26.67;;;9.48;;
81544;SDS011;70990;50.618;7.346;2023-11-21T05:13:04;23.33;;;8.57;;
81544;SDS011;70990;50.618;7.346;2023-11-21T05:15:32;24.50;;;9.20;;
81544;SDS011;70990;50.618;7.346;2023-11-21T05:17:58;20.52;;;8.25;;
81544;SDS011;70990;50.618;7.346;2023-11-21T05:20:26;28.92;;;8.82;;
81544;SDS011;70990;50.618;7.346;2023-11-21T05:22:52;28.02;;;9.45;;
81544;SDS011;70990;50.618;7.346;2023-11-21T05:25:19;23.20;;;9.52;;
81544;SDS011;70990;50.618;7.346;2023-11-21T05:27:46;20.73;;;8.38;;
81544;SDS011;70990;50.618;7.346;2023-11-21T05:30:14;31.50;;;8.65;;
81544;SDS011;70990;50.618;7.346;2023-11-21T05:32:40;28.63;;;10.52;;
81544;SDS011;70990;50.618;7.346;2023-11-21T05:35:07;31.85;;;9.18;;
81544;SDS011;70990;50.618;7.346;2023-11-21T05:37:34;24.70;;;9.80;;
81544;SDS011;70990;50.618;7.346;2023-11-21T05:40:01;27.02;;;9.82;;
81544;SDS011;70990;50.618;7.346;2023-11-21T05:42:28;30.02;;;10.65;;
81544;SDS011;70990;50.618;7.346;2023-11-21T05:44:54;28.20;;;9.43;;
81544;SDS011;70990;50.618;7.346;2023-11-21T05:47:21;29.02;;;9.50;;
81544;SDS011;70990;50.618;7.346;2023-11-21T05:49:48;28.45;;;9.98;;
81544;SDS011;70990;50.618;7.346;2023-11-21T05:52:16;36.97;;;10.95;;
81544;SDS011;70990;50.618;7.346;2023-11-21T05:54:42;28.58;;;9.07;;
81544;SDS011;70990;50.618;7.346;2023-11-21T05:57:09;31.33;;;10.23;;
81544;SDS011;70990;50.618;7.346;2023-11-21T05:59:35;34.97;;;10.40;;
81544;SDS011;70990;50.618;7.346;2023-11-21T06:02:02;40.50;;;10.23;;
81544;SDS011;70990;50.618;7.346;2023-11-21T06:04:29;26.73;;;8.38;;
81544;SDS011;70990;50.618;7.346;2023-11-21T06:06:56;30.65;;;10.55;;
81544;SDS011;70990;50.618;7.346;2023-11-21T06:09:23;25.23;;;8.90;;
81544;SDS011;70990;50.618;7.346;2023-11-21T06:11:49;20.20;;;7.55;;
81544;SDS011;70990;50.618;7.346;2023-11-21T06:14:16;29.58;;;8.10;;
81544;SDS011;70990;50.618;7.346;2023-11-21T06:16:43;26.25;;;7.95;;
81544;SDS011;70990;50.618;7.346;2023-11-21T06:19:09;18.05;;;6.50;;
81544;SDS011;70990;50.618;7.346;2023-11-21T06:21:36;27.20;;;8.43;;
81544;SDS011;70990;50.618;7.346;2023-11-21T06:24:02;21.95;;;7.40;;
81544;SDS011;70990;50.618;7.346;2023-11-21T06:26:29;29.08;;;9.32;;
81544;SDS011;70990;50.618;7.346;2023-11-21T06:28:56;24.58;;;9.27;;
81544;SDS011;70990;50.618;7.346;2023-11-21T06:31:22;26.15;;;9.13;;
81544;SDS011;70990;50.618;7.346;2023-11-21T06:33:49;30.23;;;10.00;;
81544;SDS011;70990;50.618;7.346;2023-11-21T06:36:15;25.05;;;9.60;;
81544;SDS011;70990;50.618;7.346;2023-11-21T06:38:42;26.23;;;10.23;;
81544;SDS011;70990;50.618;7.346;2023-11-21T06:41:11;35.15;;;11.15;;
81544;SDS011;70990;50.618;7.346;2023-11-21T06:43:38;26.08;;;9.35;;
81544;SDS011;70990;50.618;7.346;2023-11-21T06:46:04;35.15;;;10.77;;
81544;SDS011;70990;50.618;7.346;2023-11-21T06:48:31;26.92;;;10.65;;
81544;SDS011;70990;50.618;7.346;2023-11-21T06:50:58;36.38;;;11.90;;
81544;SDS011;70990;50.618;7.346;2023-11-21T06:53:24;26.13;;;9.35;;
81544;SDS011;70990;50.618;7.346;2023-11-21T06:55:51;28.48;;;11.00;;
81544;SDS011;70990;50.618;7.346;2023-11-21T06:58:17;34.53;;;10.05;;
81544;SDS011;70990;50.618;7.346;2023-11-21T07:00:44;32.88;;;11.07;;
81544;SDS011;70990;50.618;7.346;2023-11-21T07:03:10;30.48;;;11.20;;
81544;SDS011;70990;50.618;7.346;2023-11-21T07:05:37;35.53;;;10.35;;
81544;SDS011;70990;50.618;7.346;2023-11-21T07:08:03;29.00;;;10.75;;
81544;SDS011;70990;50.618;7.346;2023-11-21T07:10:30;26.33;;;9.55;;
81544;SDS011;70990;50.618;7.346;2023-11-21T07:12:57;25.60;;;10.27;;
81544;SDS011;70990;50.618;7.346;2023-11-21T07:15:24;29.55;;;10.07;;
81544;SDS011;70990;50.618;7.346;2023-11-21T07:17:50;29.00;;;11.50;;
81544;SDS011;70990;50.618;7.346;2023-11-21T07:20:17;28.92;;;9.95;;
81544;SDS011;70990;50.618;7.346;2023-11-21T07:22:44;28.50;;;10.30;;
81544;SDS011;70990;50.618;7.346;2023-11-21T07:25:11;30.75;;;10.40;;
81544;SDS011;70990;50.618;7.346;2023-11-21T07:27:37;30.50;;;11.25;;
81544;SDS011;70990;50.618;7.346;2023-11-21T07:30:04;29.88;;;9.73;;
81544;SDS011;70990;50.618;7.346;2023-11-21T07:32:31;27.35;;;10.70;;
81544;SDS011;70990;50.618;7.346;2023-11-21T07:34:58;32.17;;;10.18;;
81544;SDS011;70990;50.618;7.346;2023-11-21T07:37:25;32.33;;;10.50;;
81544;SDS011;70990;50.618;7.346;2023-11-21T07:39:52;34.72;;;11.02;;
81544;SDS011;70990;50.618;7.346;2023-11-21T07:42:18;35.70;;;10.77;;
81544;SDS011;70990;50.618;7.346;2023-11-21T07:44:46;31.58;;;9.40;;
81544;SDS011;70990;50.618;7.346;2023-11-21T07:47:12;29.98;;;10.18;;
81544;SDS011;70990;50.618;7.346;2023-11-21T07:49:41;29.23;;;10.23;;
81544;SDS011;70990;50.618;7.346;2023-11-21T07:52:08;31.95;;;10.82;;
81544;SDS011;70990;50.618;7.346;2023-11-21T07:54:34;29.73;;;10.13;;
81544;SDS011;70990;50.618;7.346;2023-11-21T07:57:01;32.13;;;10.10;;
81544;SDS011;70990;50.618;7.346;2023-11-21T07:59:28;29.67;;;9.68;;
81544;SDS011;70990;50.618;7.346;2023-11-21T08:01:55;27.98;;;10.15;;
81544;SDS011;70990;50.618;7.346;2023-11-21T08:04:21;34.15;;;9.70;;
81544;SDS011;70990;50.618;7.346;2023-11-21T08:06:48;28.70;;;9.88;;
81544;SDS011;70990;50.618;7.346;2023-11-21T08:09:15;33.72;;;10.25;;
81544;SDS011;70990;50.618;7.346;2023-11-21T08:11:41;32.65;;;10.27;;
81544;SDS011;70990;50.618;7.346;2023-11-21T08:14:08;25.98;;;9.43;;
81544;SDS011;70990;50.618;7.346;2023-11-21T08:16:35;33.63;;;10.73;;
81544;SDS011;70990;50.618;7.346;2023-11-21T08:19:01;35.78;;;9.85;;
81544;SDS011;70990;50.618;7.346;2023-11-21T08:21:28;22.15;;;7.90;;
81544;SDS011;70990;50.618;7.346;2023-11-21T08:23:57;27.25;;;9.13;;
81544;SDS011;70990;50.618;7.346;2023-11-21T08:26:23;28.33;;;9.45;;
81544;SDS011;70990;50.618;7.346;2023-11-21T08:28:50;26.02;;;9.68;;
81544;SDS011;70990;50.618;7.346;2023-11-21T08:31:17;16.95;;;6.55;;
81544;SDS011;70990;50.618;7.346;2023-11-21T08:33:43;24.33;;;9.32;;
81544;SDS011;70990;50.618;7.346;2023-11-21T08:36:10;28.58;;;9.98;;
81544;SDS011;70990;50.618;7.346;2023-11-21T08:38:37;35.92;;;10.50;;
81544;SDS011;70990;50.618;7.346;2023-11-21T08:41:06;33.38;;;10.10;;
81544;SDS011;70990;50.618;7.346;2023-11-21T08:43:36;31.10;;;10.18;;
81544;SDS011;70990;50.618;7.346;2023-11-21T08:46:03;26.92;;;9.50;;
81544;SDS011;70990;50.618;7.346;2023-11-21T08:48:30;24.33;;;7.85;;
81544;SDS011;70990;50.618;7.346;2023-11-21T08:50:57;23.85;;;8.02;;
81544;SDS011;70990;50.618;7.346;2023-11-21T08:53:23;24.25;;;8.45;;
81544;SDS011;70990;50.618;7.346;2023-11-21T08:55:50;26.67;;;9.38;;
81544;SDS011;70990;50.618;7.346;2023-11-21T08:58:16;22.45;;;8.60;;
81544;SDS011;70990;50.618;7.346;2023-11-21T09:00:43;25.75;;;9.25;;
81544;SDS011;70990;50.618;7.346;2023-11-21T09:03:10;21.25;;;8.65;;
81544;SDS011;70990;50.618;7.346;2023-11-21T09:05:39;21.48;;;7.65;;
81544;SDS011;70990;50.618;7.346;2023-11-21T09:08:06;19.45;;;7.38;;
81544;SDS011;70990;50.618;7.346;2023-11-21T09:10:33;25.38;;;9.13;;
81544;SDS011;70990;50.618;7.346;2023-11-21T09:13:00;27.52;;;9.10;;
81544;SDS011;70990;50.618;7.346;2023-11-21T09:15:27;19.42;;;8.05;;
81544;SDS011;70990;50.618;7.346;2023-11-21T09:17:54;23.63;;;8.05;;
81544;SDS011;70990;50.618;7.346;2023-11-21T09:20:23;21.58;;;8.13;;
81544;SDS011;70990;50.618;7.346;2023-11-21T09:22:49;20.92;;;7.85;;
81544;SDS011;70990;50.618;7.346;2023-11-21T09:25:16;16.85;;;7.18;;
81544;SDS011;70990;50.618;7.346;2023-11-21T09:27:43;22.48;;;8.35;;
81544;SDS011;70990;50.618;7.346;2023-11-21T09:30:10;18.80;;;7.93;;
81544;SDS011;70990;50.618;7.346;2023-11-21T09:32:40;24.65;;;9.55;;
81544;SDS011;70990;50.618;7.346;2023-11-21T09:35:07;25.92;;;8.88;;
81544;SDS011;70990;50.618;7.346;2023-11-21T09:37:35;25.75;;;9.00;;
81544;SDS011;70990;50.618;7.346;2023-11-21T09:40:02;19.10;;;7.93;;
81544;SDS011;70990;50.618;7.346;2023-11-21T09:42:30;23.05;;;8.68;;
81544;SDS011;70990;50.618;7.346;2023-11-21T09:45:10;21.10;;;7.78;;
81544;SDS011;70990;50.618;7.346;2023-11-21T09:47:45;21.85;;;9.30;;
81544;SDS011;70990;50.618;7.346;2023-11-21T09:50:14;21.63;;;7.63;;
81544;SDS011;70990;50.618;7.346;2023-11-21T09:55:39;21.30;;;8.15;;
81544;SDS011;70990;50.618;7.346;2023-11-21T09:58:11;22.10;;;9.38;;
81544;SDS011;70990;50.618;7.346;2023-11-21T10:00:40;21.83;;;8.50;;
81544;SDS011;70990;50.618;7.346;2023-11-21T10:03:08;26.92;;;8.77;;
81544;SDS011;70990;50.618;7.346;2023-11-21T10:05:36;21.27;;;8.52;;
81544;SDS011;70990;50.618;7.346;2023-11-21T10:08:04;23.27;;;7.72;;
81544;SDS011;70990;50.618;7.346;2023-11-21T10:10:34;22.63;;;7.88;;
81544;SDS011;70990;50.618;7.346;2023-11-21T10:13:03;20.30;;;7.47;;
81544;SDS011;70990;50.618;7.346;2023-11-21T10:15:31;19.00;;;7.50;;
81544;SDS011;70990;50.618;7.346;2023-11-21T10:18:01;19.88;;;7.70;;
81544;SDS011;70990;50.618;7.346;2023-11-21T10:20:29;20.05;;;7.68;;
81544;SDS011;70990;50.618;7.346;2023-11-21T10:22:56;22.63;;;7.22;;
81544;SDS011;70990;50.618;7.346;2023-11-21T10:25:23;23.10;;;8.60;;
81544;SDS011;70990;50.618;7.346;2023-11-21T10:27:50;23.33;;;9.23;;
81544;SDS011;70990;50.618;7.346;2023-11-21T10:30:27;28.60;;;9.52;;
81544;SDS011;70990;50.618;7.346;2023-11-21T10:32:58;21.50;;;8.20;;
81544;SDS011;70990;50.618;7.346;2023-11-21T10:35:26;25.42;;;9.40;;
81544;SDS011;70990;50.618;7.346;2023-11-21T10:38:04;26.38;;;8.77;;
81544;SDS011;70990;50.618;7.346;2023-11-21T10:40:31;21.83;;;9.20;;
81544;SDS011;70990;50.618;7.346;2023-11-21T10:43:08;25.98;;;8.93;;
81544;SDS011;70990;50.618;7.346;2023-11-21T10:45:39;21.20;;;8.23;;
81544;SDS011;70990;50.618;7.346;2023-11-21T10:48:08;25.58;;;9.60;;
81544;SDS011;70990;50.618;7.346;2023-11-21T10:50:37;23.90;;;8.30;;
81544;SDS011;70990;50.618;7.346;2023-11-21T10:53:04;23.55;;;9.43;;
81544;SDS011;70990;50.618;7.346;2023-11-21T10:55:32;28.30;;;9.85;;
81544;SDS011;70990;50.618;7.346;2023-11-21T10:58:00;25.70;;;9.35;;
81544;SDS011;70990;50.618;7.346;2023-11-21T11:00:28;22.35;;;9.30;;
81544;SDS011;70990;50.618;7.346;2023-11-21T11:02:55;27.27;;;10.55;;
81544;SDS011;70990;50.618;7.346;2023-11-21T11:05:23;23.48;;;9.68;;
81544;SDS011;70990;50.618;7.346;2023-11-21T11:07:51;25.48;;;10.13;;
81544;SDS011;70990;50.618;7.346;2023-11-21T11:10:24;22.80;;;9.20;;
81544;SDS011;70990;50.618;7.346;2023-11-21T11:12:51;21.05;;;8.80;;
81544;SDS011;70990;50.618;7.346;2023-11-21T11:15:19;26.73;;;10.70;;
81544;SDS011;70990;50.618;7.346;2023-11-21T11:17:50;22.80;;;10.13;;
81544;SDS011;70990;50.618;7.346;2023-11-21T11:20:33;26.30;;;9.60;;
81544;SDS011;70990;50.618;7.346;2023-11-21T11:34:29;19.92;;;8.77;;
81544;SDS011;70990;50.618;7.346;2023-11-21T11:39:37;22.63;;;9.10;;
81544;SDS011;70990;50.618;7.346;2023-11-21T11:42:07;21.73;;;8.73;;
81544;SDS011;70990;50.618;7.346;2023-11-21T11:47:13;22.90;;;8.70;;
81544;SDS011;70990;50.618;7.346;2023-11-21T11:55:09;21.10;;;8.80;;
81544;SDS011;70990;50.618;7.346;2023-11-21T11:57:40;22.02;;;7.10;;
81544;SDS011;70990;50.618;7.346;2023-11-21T12:02:35;19.00;;;7.47;;
81544;SDS011;70990;50.618;7.346;2023-11-21T12:05:10;22.80;;;7.80;;
81544;SDS011;70990;50.618;7.346;2023-11-21T12:07:43;21.63;;;8.43;;
81544;SDS011;70990;50.618;7.346;2023-11-21T12:10:15;18.75;;;8.00;;
81544;SDS011;70990;50.618;7.346;2023-11-21T12:12:44;21.23;;;8.15;;
81544;SDS011;70990;50.618;7.346;2023-11-21T12:15:12;19.25;;;7.78;;
81544;SDS011;70990;50.618;7.346;2023-11-21T12:17:39;21.05;;;8.48;;
81544;SDS011;70990;50.618;7.346;2023-11-21T12:20:07;21.20;;;7.93;;
81544;SDS011;70990;50.618;7.346;2023-11-21T12:22:34;18.70;;;8.00;;
81544;SDS011;70990;50.618;7.346;2023-11-21T12:25:01;25.80;;;9.15;;
81544;SDS011;70990;50.618;7.346;2023-11-21T12:27:28;23.05;;;9.38;;
81544;SDS011;70990;50.618;7.346;2023-11-21T12:29:55;21.15;;;9.07;;
81544;SDS011;70990;50.618;7.346;2023-11-21T12:32:22;21.38;;;8.70;;
81544;SDS011;70990;50.618;7.346;2023-11-21T12:34:49;22.77;;;8.50;;
81544;SDS011;70990;50.618;7.346;2023-11-21T12:37:16;24.55;;;9.05;;
81544;SDS011;70990;50.618;7.346;2023-11-21T12:39:42;25.83;;;9.52;;
81544;SDS011;70990;50.618;7.346;2023-11-21T12:42:09;23.83;;;8.30;;
81544;SDS011;70990;50.618;7.346;2023-11-21T12:44:36;24.02;;;8.80;;
81544;SDS011;70990;50.618;7.346;2023-11-21T12:47:03;30.70;;;9.73;;
81544;SDS011;70990;50.618;7.346;2023-11-21T12:49:30;24.92;;;8.82;;
81544;SDS011;70990;50.618;7.346;2023-11-21T12:51:57;22.73;;;8.90;;
81544;SDS011;70990;50.618;7.346;2023-11-21T12:54:24;24.60;;;9.48;;
81544;SDS011;70990;50.618;7.346;2023-11-21T12:56:51;27.33;;;10.23;;
81544;SDS011;70990;50.618;7.346;2023-11-21T12:59:17;24.30;;;9.93;;
81544;SDS011;70990;50.618;7.346;2023-11-21T13:01:46;30.27;;;11.45;;
81544;SDS011;70990;50.618;7.346;2023-11-21T13:04:13;25.25;;;8.80;;
81544;SDS011;70990;50.618;7.346;2023-11-21T13:06:40;21.50;;;10.32;;
81544;SDS011;70990;50.618;7.346;2023-11-21T13:09:07;20.90;;;8.10;;
81544;SDS011;70990;50.618;7.346;2023-11-21T13:11:35;26.35;;;8.98;;
81544;SDS011;70990;50.618;7.346;2023-11-21T13:14:01;29.52;;;11.02;;
81544;SDS011;70990;50.618;7.346;2023-11-21T13:16:28;29.35;;;9.77;;
81544;SDS011;70990;50.618;7.346;2023-11-21T13:18:55;23.30;;;8.95;;
81544;SDS011;70990;50.618;7.346;2023-11-21T13:21:22;30.65;;;10.68;;
81544;SDS011;70990;50.618;7.346;2023-11-21T13:23:49;26.17;;;9.50;;
81544;SDS011;70990;50.618;7.346;2023-11-21T13:26:15;30.38;;;11.15;;
81544;SDS011;70990;50.618;7.346;2023-11-21T13:28:42;27.02;;;9.82;;
81544;SDS011;70990;50.618;7.346;2023-11-21T13:31:09;30.08;;;10.15;;
81544;SDS011;70990;50.618;7.346;2023-11-21T13:33:38;29.73;;;9.63;;
81544;SDS011;70990;50.618;7.346;2023-11-21T13:36:06;29.95;;;10.32;;
81544;SDS011;70990;50.618;7.346;2023-11-21T13:38:32;29.02;;;9.55;;
81544;SDS011;70990;50.618;7.346;2023-11-21T13:40:59;24.48;;;9.32;;
81544;SDS011;70990;50.618;7.346;2023-11-21T13:43:27;24.35;;;9.48;;
81544;SDS011;70990;50.618;7.346;2023-11-21T13:45:54;27.67;;;9.75;;
81544;SDS011;70990;50.618;7.346;2023-11-21T13:48:21;23.65;;;9.30;;
81544;SDS011;70990;50.618;7.346;2023-11-21T13:50:47;25.60;;;9.50;;
81544;SDS011;70990;50.618;7.346;2023-11-21T13:53:15;25.92;;;8.88;;
81544;SDS011;70990;50.618;7.346;2023-11-21T13:55:42;25.90;;;8.70;;
81544;SDS011;70990;50.618;7.346;2023-11-21T13:58:10;27.70;;;8.68;;
81544;SDS011;70990;50.618;7.346;2023-11-21T14:00:37;23.67;;;9.63;;
81544;SDS011;70990;50.618;7.346;2023-11-21T14:03:03;23.90;;;9.77;;
81544;SDS011;70990;50.618;7.346;2023-11-21T14:05:30;26.85;;;8.85;;
81544;SDS011;70990;50.618;7.346;2023-11-21T14:08:02;24.75;;;8.77;;
81544;SDS011;70990;50.618;7.346;2023-11-21T14:10:29;25.58;;;8.77;;
81544;SDS011;70990;50.618;7.346;2023-11-21T14:12:59;24.58;;;8.68;;
81544;SDS011;70990;50.618;7.346;2023-11-21T14:15:25;20.90;;;8.20;;
81544;SDS011;70990;50.618;7.346;2023-11-21T14:17:51;20.30;;;7.45;;
81544;SDS011;70990;50.618;7.346;2023-11-21T14:20:18;23.33;;;8.00;;
81544;SDS011;70990;50.618;7.346;2023-11-21T14:22:45;19.25;;;8.95;;
81544;SDS011;70990;50.618;7.346;2023-11-21T14:25:11;23.38;;;8.32;;
81544;SDS011;70990;50.618;7.346;2023-11-21T14:27:38;25.33;;;8.85;;
81544;SDS011;70990;50.618;7.346;2023-11-21T14:30:06;25.92;;;9.52;;
81544;SDS011;70990;50.618;7.346;2023-11-21T14:32:35;21.83;;;8.27;;
81544;SDS011;70990;50.618;7.346;2023-11-21T14:35:03;25.92;;;8.88;;
81544;SDS011;70990;50.618;7.346;2023-11-21T14:37:30;23.33;;;7.97;;
81544;SDS011;70990;50.618;7.346;2023-11-21T14:39:57;26.98;;;9.02;;
81544;SDS011;70990;50.618;7.346;2023-11-21T14:42:23;26.20;;;9.10;;
81544;SDS011;70990;50.618;7.346;2023-11-21T14:44:50;21.25;;;8.98;;
81544;SDS011;70990;50.618;7.346;2023-11-21T14:47:17;19.77;;;7.78;;
81544;SDS011;70990;50.618;7.346;2023-11-21T14:49:45;23.00;;;9.15;;
81544;SDS011;70990;50.618;7.346;2023-11-21T14:52:11;23.25;;;9.07;;
81544;SDS011;70990;50.618;7.346;2023-11-21T14:54:38;23.55;;;8.20;;
81544;SDS011;70990;50.618;7.346;2023-11-21T14:57:06;22.30;;;9.20;;
81544;SDS011;70990;50.618;7.346;2023-11-21T14:59:35;27.25;;;9.80;;
81544;SDS011;70990;50.618;7.346;2023-11-21T15:02:02;26.55;;;8.65;;